Weather History for Gunnison, CO

Change the Weather History Date:

Sunday, October 27, 2013

  Actual Average Record
Temperature  
Mean Temperature 38 °F -  
Max Temperature 57 °F 49 °F 66 °F (2008)
Min Temperature 19 °F 21 °F 5 °F (1997)
Degree Days  
Heating Degree Days 27    
Moisture  
Dew Point 21 °F    
Average Humidity 56    
Maximum Humidity 86    
Minimum Humidity 26    
Precipitation  
Precipitation 0.00 in - - ()
Sea Level Pressure  
Sea Level Pressure 30.20 in    
Wind  
Wind Speed 2 mph (WNW)    
Max Wind Speed 13 mph    
Max Gust Speed 24 mph    
Visibility 10 miles    
Events      
Averages and records for this station are not official NWS values.
T = Trace of Precipitation, MM = Missing Value Source: NWS Daily Summary

Daily Weather History Graph

Daily Weather History Graph

Search for Another Location

Airport:

Trip Planner

Search our weather history database for the weather conditions in past years. The results will help you decide how hot, cold, wet, or windy it might be!

Date:

Astronomy

Oct. 27, 2013 Rise Set
Actual Time 7:29 AM MDT 6:13 PM MDT
Civil Twilight 7:02 AM MDT 6:40 PM MDT
Nautical Twilight 6:30 AM MDT 7:11 PM MDT
Astronomical Twilight 6:00 AM MDT 7:42 PM MDT
Moon 12:34 AM MDT (10/27) 2:19 PM MDT (10/27)
Length of Visible Light 11h 38m
Length of Day
10h 43m
Last Quarter, 43% of the Moon is Illuminated
Oct 27
Last Quarter
Nov 3
New
Nov 9
First Quarter
Nov 17
Full
Nov 25
Last Quarter

Hourly Weather History & Observations

Time (MDT) Temp. Windchill Dew Point Humidity Pressure Visibility Wind Dir Wind Speed Gust Speed Precip Events Conditions
12:15 AM 28.4 °F 24.6 °F 19.4 °F 69% 30.40 in 10.0 mi North 3.5 mph - N/A   Clear
12:35 AM 28.4 °F - 19.4 °F 69% 30.39 in 10.0 mi Calm Calm - N/A   Clear
12:55 AM 26.6 °F - 17.6 °F 69% 30.39 in 10.0 mi Calm Calm - N/A   Clear
1:15 AM 26.6 °F - 19.4 °F 74% 30.39 in 10.0 mi Calm Calm - N/A   Clear
1:35 AM 26.6 °F - 17.6 °F 69% 30.39 in 10.0 mi Calm Calm - N/A   Clear
2:15 AM 24.8 °F - 17.6 °F 74% 30.38 in 10.0 mi Calm Calm - N/A   Clear
2:35 AM 26.6 °F - 19.4 °F 74% 30.38 in 10.0 mi Calm Calm - N/A   Clear
2:55 AM 26.6 °F - 17.6 °F 69% 30.38 in 10.0 mi Calm Calm - N/A   Clear
3:15 AM 24.8 °F - 17.6 °F 74% 30.37 in 10.0 mi Calm Calm - N/A   Clear
3:35 AM 23.0 °F - 17.6 °F 80% 30.37 in 10.0 mi Calm Calm - N/A   Clear
3:55 AM 21.2 °F - 15.8 °F 80% 30.36 in 10.0 mi Calm Calm - N/A   Clear
4:15 AM 23.0 °F - 17.6 °F 80% 30.36 in 10.0 mi Calm Calm - N/A   Clear
4:35 AM 21.2 °F - 15.8 °F 80% 30.36 in 10.0 mi Calm Calm - N/A   Clear
4:55 AM 21.2 °F - 15.8 °F 80% 30.35 in 10.0 mi Calm Calm - N/A   Clear
5:15 AM 21.2 °F - 15.8 °F 80% 30.35 in 10.0 mi Calm Calm - N/A   Clear
5:35 AM 21.2 °F - 15.8 °F 80% 30.35 in 10.0 mi Calm Calm - N/A   Clear
5:55 AM 21.2 °F - 15.8 °F 80% 30.35 in 10.0 mi Calm Calm - N/A   Clear
6:55 AM 21.2 °F - 15.8 °F 80% 30.34 in 10.0 mi Calm Calm - N/A   Clear
7:35 AM 19.4 °F - 12.2 °F 74% 30.33 in 10.0 mi Calm Calm - N/A   Clear
7:55 AM 19.4 °F 14.3 °F 15.8 °F 86% 30.33 in 10.0 mi North 3.5 mph - N/A   Clear
8:15 AM 21.2 °F - 15.8 °F 80% 30.34 in 10.0 mi Calm Calm - N/A   Clear
8:55 AM 24.8 °F - 17.6 °F 74% 30.34 in 10.0 mi Calm Calm - N/A   Clear
9:15 AM 26.6 °F - 19.4 °F 74% 30.34 in 10.0 mi Calm Calm - N/A   Clear
9:55 AM 30.2 °F - 21.2 °F 69% 30.33 in 10.0 mi Calm Calm - N/A   Clear
10:15 AM 33.8 °F - 21.2 °F 60% 30.32 in 10.0 mi Calm Calm - N/A   Clear
10:35 AM 35.6 °F - 24.8 °F 65% 30.30 in 10.0 mi Calm Calm - N/A   Clear
10:55 AM 37.4 °F - 23.0 °F 56% 30.29 in 10.0 mi Calm Calm - N/A   Clear
11:15 AM 39.2 °F - 24.8 °F 56% 30.27 in 10.0 mi Calm Calm - N/A   Clear
11:35 AM 41.0 °F - 24.8 °F 53% 30.26 in 10.0 mi Calm Calm - N/A   Clear
11:55 AM 44.6 °F - 24.8 °F 46% 30.24 in 10.0 mi Calm Calm - N/A   Clear
12:15 PM 44.6 °F 43.1 °F 24.8 °F 46% 30.22 in 10.0 mi SSE 3.5 mph - N/A   Clear
12:35 PM 46.4 °F - 26.6 °F 46% 30.21 in 10.0 mi Calm Calm - N/A   Clear
12:55 PM 48.2 °F - 26.6 °F 43% 30.19 in 10.0 mi East 4.6 mph - N/A   Clear
1:15 PM 51.8 °F - 26.6 °F 38% 30.16 in 10.0 mi SW 6.9 mph - N/A   Clear
1:35 PM 55.4 °F - 26.6 °F 33% 30.14 in 10.0 mi SW 12.7 mph 24.2 mph N/A   Clear
1:55 PM 55.4 °F - 24.8 °F 31% 30.12 in 10.0 mi WSW 12.7 mph 20.7 mph N/A   Clear
2:15 PM 57.2 °F - 24.8 °F 29% 30.11 in 10.0 mi West 10.4 mph 20.7 mph N/A   Clear
2:35 PM 55.4 °F - 23.0 °F 29% 30.10 in 10.0 mi WSW 9.2 mph - N/A   Clear
2:55 PM 55.4 °F - 21.2 °F 26% 30.09 in 10.0 mi West 9.2 mph - N/A   Clear
3:15 PM 55.4 °F - 21.2 °F 26% 30.08 in 10.0 mi West 4.6 mph - N/A   Clear
3:35 PM 55.4 °F - 24.8 °F 31% 30.07 in 10.0 mi WSW 11.5 mph - N/A   Partly Cloudy
3:55 PM 55.4 °F - 23.0 °F 29% 30.07 in 10.0 mi West 8.1 mph - N/A   Clear
4:15 PM 55.4 °F - 23.0 °F 29% 30.05 in 10.0 mi WNW 5.8 mph - N/A   Clear
4:55 PM 55.4 °F - 23.0 °F 29% 30.04 in 10.0 mi SSW 6.9 mph - N/A   Clear
5:15 PM 53.6 °F - 23.0 °F 30% 30.03 in 10.0 mi WSW 9.2 mph - N/A   Clear
5:55 PM 53.6 °F - 24.8 °F 33% 30.03 in 10.0 mi Calm Calm - N/A   Clear
6:15 PM 50.0 °F - 24.8 °F 37% 30.03 in 10.0 mi Calm Calm - N/A   Clear
6:35 PM 48.2 °F - 24.8 °F 40% 30.03 in 10.0 mi Calm Calm - N/A   Clear
6:55 PM 46.4 °F - 21.2 °F 37% 30.03 in 10.0 mi Calm Calm - N/A   Clear
7:15 PM 44.6 °F 39.7 °F 21.2 °F 39% 30.04 in 10.0 mi NNW 9.2 mph - N/A   Clear
7:35 PM 42.8 °F 39.3 °F 21.2 °F 42% 30.04 in 10.0 mi North 5.8 mph - N/A   Clear
7:55 PM 42.8 °F - 21.2 °F 42% 30.05 in 10.0 mi Calm Calm - N/A   Clear
8:15 PM 42.8 °F - 21.2 °F 42% 30.05 in 10.0 mi North - - N/A   Scattered Clouds
8:35 PM 41.0 °F 39.0 °F 21.2 °F 45% 30.05 in 10.0 mi North 3.5 mph - N/A   Mostly Cloudy
8:55 PM 39.2 °F - 21.2 °F 49% 30.05 in 10.0 mi Calm Calm - N/A   Mostly Cloudy
9:15 PM 39.2 °F - 21.2 °F 49% 30.05 in 10.0 mi Calm Calm - N/A   Mostly Cloudy
9:35 PM 37.4 °F 32.1 °F 21.2 °F 52% 30.05 in 10.0 mi NNE 6.9 mph - N/A   Scattered Clouds
9:55 PM 37.4 °F - 21.2 °F 52% 30.05 in 10.0 mi Calm Calm - N/A   Partly Cloudy
10:15 PM 33.8 °F - 19.4 °F 56% 30.05 in 10.0 mi Calm Calm - N/A   Clear
10:35 PM 33.8 °F - 21.2 °F 60% 30.06 in 10.0 mi Calm Calm - N/A   Clear
10:55 PM 33.8 °F - 21.2 °F 60% 30.06 in 10.0 mi Calm Calm - N/A   Clear
11:15 PM 30.2 °F - 19.4 °F 64% 30.06 in 10.0 mi Calm Calm - N/A   Clear
11:35 PM 30.2 °F 26.7 °F 21.2 °F 69% 30.06 in 10.0 mi NNE 3.5 mph - N/A   Clear
11:55 PM 33.8 °F - 21.2 °F 60% 30.05 in 10.0 mi Calm Calm - N/A   Clear